Time;durP1;ratioP1;P1;durP2;ratioP2;P2;SDS_P1;SDS_P2;PMS_P1;PMS_P2;Temp;Humidity;BMP_temperature;BMP_pressure;BME280_temperature;BME280_humidity;BME280_pressure;Samples;Min_cycle;Max_cycle;Signal;HPM_P1;HPM_P2
2021/03/01 00:00:41;;;;;;;105.00;78.45;;;19.70;45.10;;;;;;4773564;55;21463;-21
2021/03/01 00:05:42;;;;;;;107.95;79.55;;;19.70;45.10;;;;;;4741020;58;21052;-20
2021/03/01 00:10:43;;;;;;;107.47;79.65;;;19.70;45.10;;;;;;4756693;55;21172;-25
2021/03/01 00:15:44;;;;;;;104.57;76.12;;;19.70;45.10;;;;;;4746047;54;21045;-26
2021/03/01 00:20:44;;;;;;;109.85;79.53;;;19.70;45.10;;;;;;4758540;54;21366;-25
2021/03/01 00:25:45;;;;;;;106.75;80.68;;;19.70;45.10;;;;;;4748881;55;21017;-24
2021/03/01 00:30:46;;;;;;;104.30;77.55;;;19.70;45.00;;;;;;4759356;54;21460;-24
2021/03/01 00:35:47;;;;;;;106.00;77.87;;;19.70;45.00;;;;;;4752876;54;21009;-25
2021/03/01 00:40:48;;;;;;;103.60;76.93;;;19.70;45.00;;;;;;4778925;54;21114;-25
2021/03/01 00:45:49;;;;;;;103.75;73.55;;;19.70;45.00;;;;;;4760410;55;21014;-24
2021/03/01 00:50:50;;;;;;;104.50;78.53;;;19.70;45.00;;;;;;4786815;55;21035;-24
2021/03/01 00:55:52;;;;;;;100.15;74.57;;;19.70;45.00;;;;;;4753864;54;21102;-26
2021/03/01 01:00:53;;;;;;;104.57;78.12;;;19.70;45.00;;;;;;4797580;55;21037;-24
2021/03/01 01:05:54;;;;;;;104.28;77.82;;;19.70;45.00;;;;;;4760165;55;21540;-24
2021/03/01 01:10:55;;;;;;;102.62;75.72;;;19.70;45.00;;;;;;4751704;54;21621;-22
2021/03/01 01:15:56;;;;;;;102.97;75.03;;;19.70;45.00;;;;;;4760004;55;21061;-31
2021/03/01 01:21:00;;;;;;;102.25;75.53;;;19.70;45.70;;;;;;4760998;55;21641;-23
2021/03/01 01:26:01;;;;;;;104.03;77.07;;;19.70;44.90;;;;;;4740585;58;21030;-22
2021/03/01 01:31:02;;;;;;;105.28;76.47;;;19.70;44.90;;;;;;4764622;54;21889;-24
2021/03/01 01:36:03;;;;;;;99.85;73.10;;;19.70;44.90;;;;;;4763300;55;21097;-32
2021/03/01 01:41:04;;;;;;;100.32;73.37;;;19.70;44.90;;;;;;4771367;55;20993;-25
2021/03/01 01:46:05;;;;;;;95.90;72.90;;;19.70;44.90;;;;;;4740741;54;21552;-22
2021/03/01 01:51:06;;;;;;;99.30;72.85;;;19.70;44.90;;;;;;4758699;54;20997;-24
2021/03/01 01:56:07;;;;;;;99.93;73.97;;;19.70;45.30;;;;;;4749038;54;21045;-24
2021/03/01 02:01:08;;;;;;;98.85;73.12;;;19.70;44.90;;;;;;4808409;55;21012;-23
2021/03/01 02:09:28;;;;;;;102.93;75.32;;;19.70;45.60;;;;;;4760820;55;21599;-23
2021/03/01 02:15:14;;;;;;;98.22;72.85;;;19.70;44.80;;;;;;4764137;55;21124;-27
2021/03/01 02:20:14;;;;;;;97.68;69.90;;;19.70;44.80;;;;;;4766078;55;21507;-25
2021/03/01 02:25:18;;;;;;;92.55;68.57;;;19.60;44.70;;;;;;4740554;58;21021;-24
2021/03/01 02:30:27;;;;;;;96.37;72.18;;;19.70;44.80;;;;;;4761424;55;21364;-24
2021/03/01 02:35:33;;;;;;;95.12;71.60;;;19.60;44.70;;;;;;4748823;54;21491;-25
2021/03/01 02:40:36;;;;;;;95.35;68.30;;;19.60;44.70;;;;;;4771178;55;21072;-24
2021/03/01 02:45:37;;;;;;;92.15;69.07;;;19.70;44.90;;;;;;4760969;55;21014;-24
2021/03/01 02:50:39;;;;;;;96.00;69.15;;;19.70;44.80;;;;;;4740251;58;21069;-24
2021/03/01 02:55:45;;;;;;;91.45;68.62;;;19.60;44.70;;;;;;4741522;55;21061;-20
2021/03/01 03:00:49;;;;;;;96.97;71.53;;;19.60;44.60;;;;;;4765905;55;21022;-23
2021/03/01 03:05:51;;;;;;;91.30;68.75;;;19.60;44.60;;;;;;4749630;55;21017;-25
2021/03/01 03:10:53;;;;;;;90.55;66.53;;;19.60;44.60;;;;;;4740312;58;21097;-26
2021/03/01 03:15:57;;;;;;;90.30;65.78;;;19.60;44.60;;;;;;4783470;55;21006;-25
2021/03/01 03:20:58;;;;;;;87.72;66.20;;;19.60;44.50;;;;;;4771486;55;21562;-24
2021/03/01 03:26:00;;;;;;;89.45;65.00;;;19.60;44.50;;;;;;4742117;55;21495;-25
2021/03/01 03:31:01;;;;;;;87.88;64.75;;;19.60;44.50;;;;;;4749131;55;21073;-24
2021/03/01 03:36:03;;;;;;;85.95;63.85;;;19.70;44.70;;;;;;4762474;54;21048;-26
2021/03/01 03:41:04;;;;;;;86.57;65.80;;;19.60;44.50;;;;;;4751497;55;21073;-22
2021/03/01 03:46:07;;;;;;;83.93;63.33;;;19.60;44.50;;;;;;4741660;55;21113;-25
2021/03/01 03:51:11;;;;;;;84.15;64.87;;;19.60;44.40;;;;;;4775085;55;21069;-24
2021/03/01 03:56:14;;;;;;;82.47;61.78;;;19.60;44.40;;;;;;4759160;55;21085;-24
2021/03/01 04:01:19;;;;;;;81.32;60.75;;;19.60;44.40;;;;;;4755242;55;21053;-24
2021/03/01 04:06:22;;;;;;;83.35;62.38;;;19.60;44.40;;;;;;4749789;55;21009;-24
2021/03/01 04:11:25;;;;;;;82.22;60.30;;;19.60;44.30;;;;;;4771936;55;21082;-24
2021/03/01 04:16:29;;;;;;;81.90;61.00;;;19.60;44.30;;;;;;4742908;55;21032;-24
2021/03/01 04:21:31;;;;;;;81.57;61.03;;;19.60;44.30;;;;;;4749748;55;21524;-24
2021/03/01 04:26:33;;;;;;;79.22;59.28;;;19.60;44.90;;;;;;4752525;55;21108;-24
2021/03/01 04:31:34;;;;;;;75.28;58.90;;;19.60;44.30;;;;;;4753197;55;21013;-22
2021/03/01 04:36:37;;;;;;;75.43;56.80;;;19.60;44.30;;;;;;4761585;55;21113;-24
2021/03/01 04:41:40;;;;;;;75.78;57.95;;;19.60;44.20;;;;;;4756813;55;21113;-25
2021/03/01 04:46:47;;;;;;;71.97;55.55;;;19.60;44.20;;;;;;4755534;55;21886;-24
2021/03/01 04:51:49;;;;;;;72.30;55.88;;;19.60;44.20;;;;;;4740813;58;21510;-22
2021/03/01 04:56:51;;;;;;;73.68;56.45;;;19.60;44.20;;;;;;4771825;55;21148;-31
2021/03/01 05:01:53;;;;;;;74.18;57.28;;;19.60;44.20;;;;;;4794832;55;21021;-24
2021/03/01 05:06:56;;;;;;;69.37;54.42;;;19.60;44.20;;;;;;4776544;55;21029;-24
2021/03/01 05:11:59;;;;;;;70.55;54.45;;;19.60;44.20;;;;;;4742988;55;21136;-23
2021/03/01 05:17:04;;;;;;;71.32;54.83;;;19.60;44.10;;;;;;4755938;54;21026;-23
2021/03/01 05:22:05;;;;;;;69.93;53.35;;;19.60;44.20;;;;;;4740850;58;21634;-23
2021/03/01 05:27:07;;;;;;;70.95;55.17;;;19.60;44.20;;;;;;4755608;54;21032;-27
2021/03/01 05:32:08;;;;;;;72.20;55.78;;;19.50;44.10;;;;;;4788657;55;21535;-20
2021/03/01 05:37:08;;;;;;;67.68;53.63;;;19.60;44.10;;;;;;4777867;54;20989;-22
2021/03/01 05:42:11;;;;;;;68.72;53.08;;;19.60;44.20;;;;;;4780943;54;21033;-24
2021/03/01 05:47:12;;;;;;;67.30;52.40;;;19.60;44.10;;;;;;4768434;55;20998;-24
2021/03/01 05:52:17;;;;;;;67.93;52.62;;;19.50;44.10;;;;;;4753481;55;21021;-24
2021/03/01 05:57:20;;;;;;;66.65;53.33;;;19.60;44.10;;;;;;4740375;58;21523;-23
2021/03/01 06:02:21;;;;;;;67.65;51.83;;;19.60;44.10;;;;;;4743726;55;21077;-25
2021/03/01 06:07:22;;;;;;;68.28;51.50;;;19.60;44.20;;;;;;4749328;55;21499;-24
2021/03/01 06:12:23;;;;;;;67.32;51.10;;;19.60;44.30;;;;;;4743965;54;21520;-20
2021/03/01 06:17:24;;;;;;;69.28;51.63;;;19.60;44.40;;;;;;4796107;54;21042;-23
2021/03/01 06:22:46;;;;;;;67.53;51.65;;;19.60;44.50;;;;;;4747256;54;21065;-22
2021/03/01 06:27:52;;;;;;;64.68;50.63;;;19.50;44.50;;;;;;4762760;55;21042;-21
2021/03/01 06:33:16;;;;;;;68.03;51.53;;;19.50;44.50;;;;;;4794246;55;21003;-23
2021/03/01 06:40:09;;;;;;;65.32;50.00;;;19.50;44.50;;;;;;4741231;58;21058;-22
2021/03/01 06:45:13;;;;;;;66.82;50.83;;;19.60;44.60;;;;;;4740951;55;21017;-24
2021/03/01 06:50:33;;;;;;;62.67;49.65;;;19.60;44.60;;;;;;4788053;55;21002;-23
2021/03/01 06:55:34;;;;;;;64.60;50.12;;;19.60;44.60;;;;;;4741289;55;21884;-22
2021/03/01 07:00:35;;;;;;;65.28;49.63;;;19.60;44.60;;;;;;4767471;54;21057;-24
2021/03/01 07:05:51;;;;;;;63.78;49.55;;;19.50;44.50;;;;;;4743439;55;20978;-23
2021/03/01 07:10:52;;;;;;;64.45;49.97;;;19.50;44.50;;;;;;4816477;54;21034;-24
2021/03/01 07:15:53;;;;;;;63.45;49.45;;;19.60;44.50;;;;;;4751780;54;20994;-25
2021/03/01 07:20:55;;;;;;;64.97;50.75;;;19.60;44.60;;;;;;4769073;55;21069;-24
2021/03/01 07:25:58;;;;;;;64.32;49.63;;;19.50;44.50;;;;;;4761488;55;20986;-25
2021/03/01 07:31:02;;;;;;;65.95;51.22;;;19.50;44.40;;;;;;4773965;55;21563;-24
2021/03/01 07:36:03;;;;;;;61.60;46.92;;;19.50;44.50;;;;;;4811247;55;21487;-25
2021/03/01 07:41:04;;;;;;;62.88;49.08;;;19.60;44.50;;;;;;4752045;55;21476;-22
2021/03/01 07:46:06;;;;;;;57.65;47.33;;;19.50;44.40;;;;;;4792224;54;21034;-24
2021/03/01 07:51:09;;;;;;;63.92;48.63;;;19.50;44.50;;;;;;4770322;55;21002;-24
2021/03/01 07:59:43;;;;;;;61.70;48.40;;;19.50;44.50;;;;;;4773780;55;20989;-24
2021/03/01 08:04:44;;;;;;;61.22;49.13;;;19.50;44.50;;;;;;4739448;58;21061;-23
2021/03/01 08:09:50;;;;;;;62.17;50.03;;;19.50;44.50;;;;;;4789134;54;21097;-23
2021/03/01 08:15:19;;;;;;;59.65;45.60;;;19.50;44.50;;;;;;4753495;55;21582;-24
2021/03/01 08:20:28;;;;;;;61.28;48.17;;;19.50;44.60;;;;;;4746600;55;21018;-21
2021/03/01 08:25:52;;;;;;;62.08;48.65;;;19.50;44.50;;;;;;4746744;55;21601;-24
2021/03/01 08:31:39;;;;;;;59.42;48.13;;;19.60;44.60;;;;;;4753361;55;21121;-23
2021/03/01 08:36:44;;;;;;;61.88;48.13;;;19.50;44.60;;;;;;4764696;55;21134;-23
2021/03/01 08:41:45;;;;;;;60.90;47.97;;;19.50;44.60;;;;;;4764783;55;21555;-28
2021/03/01 08:46:47;;;;;;;66.20;50.78;;;19.50;44.60;;;;;;4759253;55;21547;-24
2021/03/01 08:51:48;;;;;;;62.47;49.38;;;19.60;44.80;;;;;;4785123;55;22019;-26
2021/03/01 08:57:01;;;;;;;62.30;48.87;;;19.60;44.70;;;;;;4740572;58;21031;-25
2021/03/01 09:02:02;;;;;;;65.70;50.60;;;19.50;44.70;;;;;;4790276;55;21013;-25
2021/03/01 09:07:08;;;;;;;64.85;51.05;;;19.60;44.80;;;;;;4765141;55;21483;-23
2021/03/01 09:12:17;;;;;;;62.80;50.03;;;19.50;44.70;;;;;;4757297;55;22058;-25
2021/03/01 09:17:19;;;;;;;64.37;50.12;;;19.50;44.80;;;;;;4821874;55;21002;-23
2021/03/01 09:22:20;;;;;;;66.72;51.37;;;19.60;44.80;;;;;;4782137;55;21009;-24
2021/03/01 09:27:31;;;;;;;63.95;51.25;;;19.60;44.90;;;;;;4746070;55;21586;-22
2021/03/01 09:32:32;;;;;;;63.15;49.83;;;19.60;44.90;;;;;;4743131;55;21081;-22
2021/03/01 09:37:32;;;;;;;66.47;51.88;;;19.50;44.90;;;;;;4766455;54;21494;-24
2021/03/01 09:42:33;;;;;;;70.03;52.62;;;19.60;44.90;;;;;;4749300;54;21033;-24
2021/03/01 09:47:34;;;;;;;63.53;51.47;;;19.60;44.90;;;;;;4753498;54;21362;-25
2021/03/01 09:52:36;;;;;;;72.55;55.25;;;19.60;45.00;;;;;;4754233;54;21081;-21
2021/03/01 09:57:38;;;;;;;65.95;51.75;;;19.50;44.90;;;;;;4741915;55;21010;-25
2021/03/01 10:02:39;;;;;;;68.05;53.33;;;19.60;45.00;;;;;;4751409;55;21526;-24
2021/03/01 10:07:40;;;;;;;67.22;52.65;;;19.60;45.00;;;;;;4754637;54;21077;-22
2021/03/01 10:12:45;;;;;;;70.82;54.65;;;19.60;45.00;;;;;;4752776;55;21066;-23
2021/03/01 10:17:45;;;;;;;69.78;55.12;;;19.50;45.00;;;;;;4772186;55;20993;-23
2021/03/01 10:23:09;;;;;;;71.10;53.75;;;19.60;45.20;;;;;;4741052;54;21542;-25
2021/03/01 10:28:31;;;;;;;70.00;53.58;;;19.60;45.10;;;;;;4757497;55;21005;-24
2021/03/01 10:33:48;;;;;;;69.37;53.35;;;19.60;45.20;;;;;;4779275;55;20998;-25
2021/03/01 10:38:58;;;;;;;71.63;56.13;;;19.60;45.20;;;;;;4745522;55;20997;-23
2021/03/01 10:44:03;;;;;;;67.57;53.30;;;19.50;45.10;;;;;;4756316;55;21030;-24
2021/03/01 10:49:30;;;;;;;70.68;55.83;;;19.60;45.20;;;;;;4765096;55;21085;-23
2021/03/01 10:54:31;;;;;;;71.97;55.57;;;19.60;45.30;;;;;;4753071;55;21582;-23
2021/03/01 10:59:32;;;;;;;70.95;56.37;;;19.60;45.30;;;;;;4788196;54;21049;-21
2021/03/01 11:04:34;;;;;;;68.93;55.88;;;19.60;45.30;;;;;;4760250;55;21057;-22
2021/03/01 11:09:34;;;;;;;69.53;55.97;;;19.60;45.30;;;;;;4768633;55;21018;-23
2021/03/01 11:14:35;;;;;;;72.85;56.70;;;19.60;45.30;;;;;;4780385;54;21634;-23
2021/03/01 11:19:36;;;;;;;71.55;56.95;;;19.60;45.40;;;;;;4744275;55;21414;-24
2021/03/01 11:24:37;;;;;;;70.10;55.53;;;19.60;45.40;;;;;;4781794;54;21014;-22
2021/03/01 11:29:38;;;;;;;69.30;55.42;;;19.60;45.40;;;;;;4744020;54;20998;-24
2021/03/01 11:34:39;;;;;;;72.97;56.37;;;19.60;45.50;;;;;;4746260;54;21476;-25
2021/03/01 11:39:40;;;;;;;73.68;56.65;;;19.60;45.50;;;;;;4746147;55;21050;-22
2021/03/01 11:44:40;;;;;;;68.85;55.90;;;19.60;45.50;;;;;;4745282;55;21001;-24
2021/03/01 11:49:41;;;;;;;67.45;54.83;;;19.60;45.60;;;;;;4758416;54;21532;-23
2021/03/01 11:54:42;;;;;;;70.70;56.05;;;19.60;45.60;;;;;;4746376;54;21718;-23
2021/03/01 11:59:43;;;;;;;70.97;55.80;;;19.60;45.60;;;;;;4755832;55;21007;-25
2021/03/01 12:04:44;;;;;;;70.47;56.75;;;19.60;45.60;;;;;;4798554;54;21495;-25
2021/03/01 12:09:45;;;;;;;71.30;57.15;;;19.60;45.60;;;;;;4745009;55;21061;-23
2021/03/01 12:14:46;;;;;;;68.12;55.15;;;19.60;45.70;;;;;;4813260;54;20981;-23
2021/03/01 12:19:47;;;;;;;72.30;57.42;;;19.60;45.70;;;;;;4788248;55;21034;-25
2021/03/01 12:24:49;;;;;;;70.93;56.10;;;19.60;45.70;;;;;;4764608;54;21124;-23
2021/03/01 12:29:50;;;;;;;73.18;56.70;;;19.60;45.70;;;;;;4740592;58;21605;-20
2021/03/01 12:34:51;;;;;;;73.65;58.13;;;19.60;45.80;;;;;;4753565;54;21089;-24
2021/03/01 12:39:52;;;;;;;70.50;58.22;;;19.60;45.80;;;;;;4741011;55;21005;-26
2021/03/01 12:44:53;;;;;;;71.37;57.03;;;19.60;45.80;;;;;;4796083;55;21077;-25
2021/03/01 12:49:54;;;;;;;72.28;57.08;;;19.60;45.80;;;;;;4756111;54;21539;-25
2021/03/01 12:54:55;;;;;;;70.00;56.83;;;19.60;45.80;;;;;;4770006;55;21049;-23
2021/03/01 12:59:55;;;;;;;71.65;55.12;;;19.60;45.40;;;;;;4761887;55;21512;-26
2021/03/01 13:04:57;;;;;;;71.37;57.35;;;19.60;45.80;;;;;;4749207;54;21105;-24
2021/03/01 13:10:01;;;;;;;70.97;57.75;;;19.60;45.80;;;;;;4739563;58;21062;-23
2021/03/01 13:15:03;;;;;;;71.57;57.53;;;19.60;45.80;;;;;;4798973;55;20986;-24
2021/03/01 13:20:05;;;;;;;71.70;57.60;;;19.60;45.80;;;;;;4739891;58;21014;-23
2021/03/01 13:25:07;;;;;;;68.78;54.53;;;19.60;45.80;;;;;;4789226;55;21022;-25
2021/03/01 13:30:09;;;;;;;74.55;59.10;;;19.60;45.90;;;;;;4770863;55;21169;-25
2021/03/01 13:35:11;;;;;;;72.32;57.85;;;19.60;45.80;;;;;;4740549;58;21511;-24
2021/03/01 13:40:13;;;;;;;70.32;56.60;;;19.60;45.90;;;;;;4792434;55;21025;-23
2021/03/01 13:45:15;;;;;;;69.10;55.63;;;19.60;45.90;;;;;;4776421;55;21002;-23
2021/03/01 13:50:16;;;;;;;72.80;58.25;;;19.60;45.90;;;;;;4748278;55;21129;-25
2021/03/01 13:55:17;;;;;;;69.62;56.60;;;19.60;45.90;;;;;;4751933;55;21082;-23
2021/03/01 14:00:19;;;;;;;67.65;55.53;;;19.60;45.90;;;;;;4749667;54;21558;-23
2021/03/01 14:05:20;;;;;;;69.93;57.13;;;19.60;45.90;;;;;;4757811;55;21475;-25
2021/03/01 14:10:22;;;;;;;69.10;56.55;;;19.60;45.90;;;;;;4749821;54;21042;-24
2021/03/01 14:15:23;;;;;;;67.45;54.63;;;19.60;45.90;;;;;;4767722;55;21491;-26
2021/03/01 14:20:24;;;;;;;69.87;56.25;;;19.60;45.90;;;;;;4772764;55;21101;-23
2021/03/01 14:25:25;;;;;;;66.20;55.72;;;19.60;46.00;;;;;;4755648;55;21001;-24
2021/03/01 14:30:27;;;;;;;66.50;55.53;;;19.60;45.90;;;;;;4773935;55;21010;-22
2021/03/01 14:35:28;;;;;;;70.80;55.20;;;19.60;45.90;;;;;;4776930;55;21073;-23
2021/03/01 14:40:29;;;;;;;71.32;57.50;;;19.60;45.90;;;;;;4749056;54;21474;-24
2021/03/01 14:45:30;;;;;;;70.37;56.00;;;19.60;46.00;;;;;;4743178;54;21006;-23
2021/03/01 14:50:31;;;;;;;69.72;57.55;;;19.60;45.90;;;;;;4740378;58;21041;-25
2021/03/01 14:55:32;;;;;;;69.10;55.05;;;19.60;45.90;;;;;;4749342;54;21485;-23
2021/03/01 15:00:33;;;;;;;67.53;56.42;;;19.60;45.90;;;;;;4740611;55;20997;-25
2021/03/01 15:05:35;;;;;;;66.75;55.47;;;19.60;45.90;;;;;;4763949;55;21120;-24
2021/03/01 15:10:36;;;;;;;70.00;56.53;;;19.60;46.60;;;;;;4766253;55;21583;-24
2021/03/01 15:15:37;;;;;;;69.05;56.67;;;19.60;45.90;;;;;;4746118;54;21141;-23
2021/03/01 15:20:38;;;;;;;70.37;56.22;;;19.60;46.00;;;;;;4789002;54;21012;-24
2021/03/01 15:25:39;;;;;;;73.12;57.90;;;19.60;46.00;;;;;;4741277;54;21017;-24
2021/03/01 15:30:40;;;;;;;68.60;57.08;;;19.60;46.00;;;;;;4774398;55;21711;-22
2021/03/01 15:35:41;;;;;;;65.97;53.95;;;19.60;46.00;;;;;;4762685;54;20990;-24
2021/03/01 15:40:42;;;;;;;70.55;57.00;;;19.60;46.00;;;;;;4759177;55;21515;-23
2021/03/01 15:45:44;;;;;;;72.28;58.33;;;19.60;46.10;;;;;;4746094;55;21599;-24
2021/03/01 15:50:45;;;;;;;73.57;58.05;;;19.60;46.00;;;;;;4745418;54;21002;-24
2021/03/01 15:55:46;;;;;;;70.32;57.83;;;19.60;46.00;;;;;;4764177;54;21011;-25
2021/03/01 16:00:47;;;;;;;72.72;60.00;;;19.60;46.00;;;;;;4738739;58;21041;-24
2021/03/01 16:05:48;;;;;;;70.93;56.65;;;19.60;46.00;;;;;;4748499;54;21567;-24
2021/03/01 16:10:49;;;;;;;70.20;58.33;;;19.60;46.00;;;;;;4751043;54;21041;-26
2021/03/01 16:15:50;;;;;;;72.62;60.45;;;19.60;46.10;;;;;;4742328;54;21606;-24
2021/03/01 16:20:51;;;;;;;71.78;58.20;;;19.60;46.10;;;;;;4777206;55;21004;-24
2021/03/01 16:25:51;;;;;;;74.07;58.50;;;19.60;46.10;;;;;;4756792;55;21090;-21
2021/03/01 16:30:55;;;;;;;71.80;59.13;;;19.60;46.10;;;;;;4740218;58;21638;-24
2021/03/01 16:35:56;;;;;;;73.15;58.15;;;19.60;46.10;;;;;;4777262;55;21976;-24
2021/03/01 16:40:57;;;;;;;72.45;57.97;;;19.60;46.10;;;;;;4751611;54;21116;-24
2021/03/01 16:45:58;;;;;;;70.28;57.30;;;19.60;46.10;;;;;;4743608;55;21524;-24
2021/03/01 16:51:00;;;;;;;70.15;56.85;;;19.60;46.10;;;;;;4773604;55;21077;-25
2021/03/01 16:56:02;;;;;;;71.53;59.83;;;19.60;46.10;;;;;;4776444;55;21073;-25
2021/03/01 17:01:03;;;;;;;74.97;59.65;;;19.60;46.10;;;;;;4771103;55;21152;-25
2021/03/01 17:06:08;;;;;;;68.20;55.20;;;19.60;46.10;;;;;;4745386;55;21123;-23
2021/03/01 17:11:10;;;;;;;69.95;58.25;;;19.60;46.10;;;;;;4755770;55;21556;-22
2021/03/01 17:16:12;;;;;;;69.20;56.88;;;19.60;46.10;;;;;;4750157;55;22073;-23
2021/03/01 17:21:19;;;;;;;70.90;57.60;;;19.60;46.10;;;;;;4747218;55;21034;-23
2021/03/01 17:26:26;;;;;;;70.30;58.05;;;19.60;46.10;;;;;;4741064;55;21062;-25
2021/03/01 17:31:27;;;;;;;72.37;59.00;;;19.60;46.10;;;;;;4783745;55;21527;-25
2021/03/01 17:36:28;;;;;;;74.90;60.22;;;19.60;46.10;;;;;;4740067;58;21081;-24
2021/03/01 17:41:29;;;;;;;69.82;57.72;;;19.60;46.70;;;;;;4765605;54;21022;-25
2021/03/01 17:46:31;;;;;;;70.37;58.40;;;19.60;46.00;;;;;;4740071;58;21006;-24
2021/03/01 17:51:47;;;;;;;74.97;59.90;;;19.70;46.10;;;;;;4776953;55;21535;-24
2021/03/01 17:56:52;;;;;;;73.87;59.25;;;19.70;46.10;;;;;;4757511;55;20993;-25
2021/03/01 18:01:56;;;;;;;71.18;59.22;;;19.70;46.10;;;;;;4755278;55;21602;-23
2021/03/01 18:06:57;;;;;;;72.80;58.97;;;19.60;46.00;;;;;;4784120;55;21017;-25
2021/03/01 18:11:58;;;;;;;70.53;57.67;;;19.70;46.10;;;;;;4761895;55;21984;-24
2021/03/01 18:16:59;;;;;;;72.03;61.80;;;19.60;46.00;;;;;;4758919;54;21117;-23
2021/03/01 18:22:00;;;;;;;72.97;60.83;;;19.60;46.00;;;;;;4765130;54;21037;-25
2021/03/01 18:27:04;;;;;;;74.25;61.35;;;19.60;46.00;;;;;;4741127;54;21033;-23
2021/03/01 18:32:11;;;;;;;75.07;62.95;;;19.60;46.00;;;;;;4741106;58;21700;-23
2021/03/01 18:37:15;;;;;;;74.62;61.90;;;19.60;46.00;;;;;;4746680;55;21116;-22
2021/03/01 18:42:17;;;;;;;78.43;63.95;;;19.60;45.90;;;;;;4777610;55;21028;-24
2021/03/01 18:47:23;;;;;;;80.30;64.82;;;19.60;46.00;;;;;;4754968;55;21504;-24
2021/03/01 18:52:24;;;;;;;81.10;66.80;;;19.60;46.00;;;;;;4757437;55;21125;-23
2021/03/01 18:57:25;;;;;;;81.35;66.22;;;19.70;46.10;;;;;;4759914;55;21787;-25
2021/03/01 19:02:27;;;;;;;86.15;69.65;;;19.60;46.00;;;;;;4758234;54;22088;-23
2021/03/01 19:07:28;;;;;;;81.70;68.30;;;19.60;46.00;;;;;;4820960;55;21065;-20
2021/03/01 19:12:30;;;;;;;84.85;69.32;;;19.60;46.00;;;;;;4792658;54;21504;-23
2021/03/01 19:17:31;;;;;;;89.43;73.62;;;19.70;46.00;;;;;;4755034;55;21571;-24
2021/03/01 19:22:32;;;;;;;84.93;68.75;;;19.60;46.00;;;;;;4776000;54;21069;-23
2021/03/01 19:27:33;;;;;;;83.40;71.35;;;19.60;46.00;;;;;;4741051;58;21100;-25
2021/03/01 19:32:34;;;;;;;83.37;72.30;;;19.60;46.00;;;;;;4745988;55;21041;-23
2021/03/01 19:37:35;;;;;;;89.00;73.72;;;19.60;46.00;;;;;;4746064;55;21096;-25
2021/03/01 19:42:36;;;;;;;93.18;75.93;;;19.60;45.90;;;;;;4757335;55;21105;-24
2021/03/01 19:47:38;;;;;;;94.65;77.32;;;19.70;46.00;;;;;;4740074;58;21046;-23
2021/03/01 19:52:40;;;;;;;95.85;77.28;;;19.70;46.00;;;;;;4761211;55;21554;-25
2021/03/01 19:57:41;;;;;;;92.22;77.95;;;19.60;46.00;;;;;;4739965;55;21014;-23
2021/03/01 20:02:42;;;;;;;98.15;81.18;;;19.60;45.90;;;;;;4777830;55;21555;-23
2021/03/01 20:07:43;;;;;;;98.80;80.28;;;19.60;45.90;;;;;;4754849;54;21113;-25
2021/03/01 20:12:44;;;;;;;99.60;83.07;;;19.60;45.90;;;;;;4786663;55;21523;-25
2021/03/01 20:17:44;;;;;;;101.68;82.60;;;19.60;46.00;;;;;;4749724;55;21053;-24
2021/03/01 20:22:45;;;;;;;97.43;80.65;;;19.60;46.10;;;;;;4756161;54;21017;-23
2021/03/01 20:27:50;;;;;;;101.57;83.55;;;19.60;45.90;;;;;;4779717;55;21034;-25
2021/03/01 20:32:51;;;;;;;103.12;84.93;;;19.60;45.90;;;;;;4740166;58;21018;-25
2021/03/01 20:37:52;;;;;;;104.15;85.30;;;19.60;45.90;;;;;;4755771;54;21001;-24
2021/03/01 20:42:53;;;;;;;106.15;87.05;;;19.60;46.00;;;;;;4746839;55;21006;-22
2021/03/01 20:47:54;;;;;;;105.12;88.90;;;19.60;46.00;;;;;;4740509;58;21049;-24
2021/03/01 20:52:55;;;;;;;109.12;86.47;;;19.70;46.00;;;;;;4756177;54;21017;-24
2021/03/01 20:57:57;;;;;;;109.22;90.95;;;19.70;46.00;;;;;;4740423;58;21093;-25
2021/03/01 21:02:58;;;;;;;110.93;91.47;;;19.70;46.00;;;;;;4748814;55;22156;-24
2021/03/01 21:07:59;;;;;;;113.62;92.20;;;19.60;45.90;;;;;;4740896;58;21096;-26
2021/03/01 21:13:01;;;;;;;110.75;89.78;;;19.60;45.90;;;;;;4790798;55;21081;-24
2021/03/01 21:18:02;;;;;;;116.00;93.62;;;19.60;45.90;;;;;;4758073;55;21499;-21
2021/03/01 21:23:15;;;;;;;119.20;95.38;;;19.60;45.90;;;;;;4773518;55;21066;-24
2021/03/01 21:28:20;;;;;;;118.40;96.78;;;19.70;46.00;;;;;;4746516;55;21080;-24
2021/03/01 21:33:22;;;;;;;118.03;96.65;;;19.60;45.90;;;;;;4757544;55;21074;-25
2021/03/01 21:38:26;;;;;;;116.80;96.15;;;19.60;45.90;;;;;;4773582;55;21539;-25
2021/03/01 21:43:27;;;;;;;120.40;98.18;;;19.60;45.90;;;;;;4762864;55;21538;-25
2021/03/01 21:48:31;;;;;;;121.68;97.97;;;19.70;45.90;;;;;;4740177;58;21077;-25
2021/03/01 21:53:45;;;;;;;120.18;96.68;;;19.60;45.90;;;;;;4768642;55;21006;-24
2021/03/01 21:58:47;;;;;;;128.35;100.78;;;19.60;45.80;;;;;;4743226;55;21523;-25
2021/03/01 22:03:53;;;;;;;126.95;99.70;;;19.60;45.80;;;;;;4778009;55;21073;-23
2021/03/01 22:08:54;;;;;;;128.07;101.55;;;19.60;45.80;;;;;;4749801;55;21029;-25
2021/03/01 22:13:56;;;;;;;129.27;100.32;;;19.60;45.80;;;;;;4768378;55;21077;-25
2021/03/01 22:19:00;;;;;;;131.63;103.47;;;19.60;45.80;;;;;;4754042;55;21029;-24
2021/03/01 22:24:01;;;;;;;126.25;99.60;;;19.60;45.80;;;;;;4755842;55;21098;-25
2021/03/01 22:29:10;;;;;;;129.50;104.35;;;19.60;45.80;;;;;;4739916;58;21109;-24
2021/03/01 22:34:16;;;;;;;131.52;104.03;;;19.60;45.80;;;;;;4741620;55;21097;-25
2021/03/01 22:39:25;;;;;;;132.73;105.70;;;19.60;45.80;;;;;;4788359;55;21125;-25
2021/03/01 22:44:28;;;;;;;134.98;107.00;;;19.60;45.70;;;;;;4777349;55;21583;-24
2021/03/01 22:49:29;;;;;;;131.57;104.75;;;19.60;45.70;;;;;;4752873;55;21017;-24
2021/03/01 22:54:33;;;;;;;135.98;105.20;;;19.60;45.70;;;;;;4743901;55;21021;-24
2021/03/01 22:59:37;;;;;;;134.15;105.75;;;19.60;45.70;;;;;;4791640;55;21536;-23
2021/03/01 23:04:38;;;;;;;135.60;109.65;;;19.60;45.70;;;;;;4768033;55;21583;-23
2021/03/01 23:09:39;;;;;;;137.00;106.87;;;19.60;45.70;;;;;;4758734;55;21117;-24
2021/03/01 23:14:40;;;;;;;132.10;103.87;;;19.60;45.90;;;;;;4751075;54;21456;-24
2021/03/01 23:19:41;;;;;;;135.32;106.07;;;19.60;45.60;;;;;;4744010;55;21001;-25
2021/03/01 23:24:44;;;;;;;139.37;109.80;;;19.60;45.60;;;;;;4739949;58;21523;-25
2021/03/01 23:29:45;;;;;;;133.43;106.40;;;19.60;45.60;;;;;;4748248;55;22155;-24
2021/03/01 23:34:46;;;;;;;131.07;104.43;;;19.60;45.60;;;;;;4741324;55;21065;-22
2021/03/01 23:39:49;;;;;;;137.60;106.20;;;19.60;45.50;;;;;;4781718;54;21033;-25
2021/03/01 23:44:50;;;;;;;136.77;107.35;;;19.60;45.50;;;;;;4754874;55;21109;-24
2021/03/01 23:49:52;;;;;;;137.15;108.90;;;19.60;45.50;;;;;;4756709;55;21487;-25
2021/03/01 23:54:53;;;;;;;137.45;107.95;;;19.60;45.50;;;;;;4781000;55;21081;-22
2021/03/01 23:59:54;;;;;;;141.77;111.20;;;19.60;45.50;;;;;;4748772;54;21508;-23
